sensor_id;sensor_type;location;lat;lon;timestamp;pressure;altitude;pressure_sealevel;temperature;humidity
64064;BME280;50314;50.618;10.642;2022-10-16T00:01:45;96411.25;;;18.78;29.26
64064;BME280;50314;50.618;10.642;2022-10-16T00:04:10;96414.22;;;18.84;28.83
64064;BME280;50314;50.618;10.642;2022-10-16T00:06:36;96410.56;;;18.85;28.92
64064;BME280;50314;50.618;10.642;2022-10-16T00:09:01;96413.38;;;18.83;29.16
64064;BME280;50314;50.618;10.642;2022-10-16T00:11:30;96416.06;;;18.83;29.26
64064;BME280;50314;50.618;10.642;2022-10-16T00:13:58;96414.22;;;18.84;29.39
64064;BME280;50314;50.618;10.642;2022-10-16T00:16:24;96412.56;;;18.83;29.25
64064;BME280;50314;50.618;10.642;2022-10-16T00:18:50;96419.75;;;18.82;28.92
64064;BME280;50314;50.618;10.642;2022-10-16T00:21:21;96417.06;;;18.82;29.25
64064;BME280;50314;50.618;10.642;2022-10-16T00:23:50;96425.22;;;18.81;29.38
64064;BME280;50314;50.618;10.642;2022-10-16T00:26:17;96432.25;;;18.82;29.27
64064;BME280;50314;50.618;10.642;2022-10-16T00:28:46;96426.25;;;18.80;28.87
64064;BME280;50314;50.618;10.642;2022-10-16T00:31:12;96419.91;;;18.81;29.13
64064;BME280;50314;50.618;10.642;2022-10-16T00:33:39;96418.25;;;18.80;28.75
64064;BME280;50314;50.618;10.642;2022-10-16T00:36:06;96421.72;;;18.80;29.32
64064;BME280;50314;50.618;10.642;2022-10-16T00:38:33;96418.25;;;18.80;29.21
64064;BME280;50314;50.618;10.642;2022-10-16T00:40:59;96425.22;;;18.81;29.09
64064;BME280;50314;50.618;10.642;2022-10-16T00:43:50;96426.75;;;18.75;29.44
64064;BME280;50314;50.618;10.642;2022-10-16T00:46:25;96430.09;;;18.77;28.91
64064;BME280;50314;50.618;10.642;2022-10-16T00:51:25;96429.25;;;18.76;28.98
64064;BME280;50314;50.618;10.642;2022-10-16T00:53:54;96420.22;;;18.77;28.85
64064;BME280;50314;50.618;10.642;2022-10-16T00:56:20;96426.59;;;18.76;28.86
64064;BME280;50314;50.618;10.642;2022-10-16T00:58:45;96423.91;;;18.76;28.80
64064;BME280;50314;50.618;10.642;2022-10-16T01:01:11;96416.91;;;18.75;29.38
64064;BME280;50314;50.618;10.642;2022-10-16T01:03:37;96415.09;;;18.76;29.21
64064;BME280;50314;50.618;10.642;2022-10-16T01:06:05;96417.75;;;18.76;29.21
64064;BME280;50314;50.618;10.642;2022-10-16T01:08:46;96426.25;;;18.71;29.48
64064;BME280;50314;50.618;10.642;2022-10-16T01:11:24;96427.91;;;18.72;29.39
64064;BME280;50314;50.618;10.642;2022-10-16T01:13:58;96427.91;;;18.72;29.03
64064;BME280;50314;50.618;10.642;2022-10-16T01:16:49;96438.91;;;18.69;29.20
64064;BME280;50314;50.618;10.642;2022-10-16T01:19:50;96435.56;;;18.67;29.33
64064;BME280;50314;50.618;10.642;2022-10-16T01:22:25;96437.06;;;18.70;29.21
64064;BME280;50314;50.618;10.642;2022-10-16T01:24:58;96447.59;;;18.71;29.08
64064;BME280;50314;50.618;10.642;2022-10-16T01:27:28;96451.09;;;18.72;29.05
64064;BME280;50314;50.618;10.642;2022-10-16T01:30:04;96449.59;;;18.69;29.40
64064;BME280;50314;50.618;10.642;2022-10-16T01:32:40;96449.59;;;18.69;29.24
64064;BME280;50314;50.618;10.642;2022-10-16T01:35:29;96448.28;;;18.65;29.31
64064;BME280;50314;50.618;10.642;2022-10-16T01:40:35;96466.59;;;18.68;29.25
64064;BME280;50314;50.618;10.642;2022-10-16T01:43:14;96465.28;;;18.64;29.58
64064;BME280;50314;50.618;10.642;2022-10-16T01:45:42;96461.25;;;18.68;29.34
64064;BME280;50314;50.618;10.642;2022-10-16T01:48:12;96463.09;;;18.68;29.13
64064;BME280;50314;50.618;10.642;2022-10-16T01:50:41;96459.75;;;18.66;29.35
64064;BME280;50314;50.618;10.642;2022-10-16T01:53:11;96457.94;;;18.66;29.33
64064;BME280;50314;50.618;10.642;2022-10-16T01:55:40;96469.28;;;18.68;29.07
64064;BME280;50314;50.618;10.642;2022-10-16T01:58:12;96463.94;;;18.68;29.31
64064;BME280;50314;50.618;10.642;2022-10-16T02:00:40;96463.09;;;18.68;29.01
64064;BME280;50314;50.618;10.642;2022-10-16T02:03:07;96452.44;;;18.68;29.16
64064;BME280;50314;50.618;10.642;2022-10-16T02:05:46;96441.44;;;18.63;29.23
64064;BME280;50314;50.618;10.642;2022-10-16T02:08:14;96463.25;;;18.66;29.19
64064;BME280;50314;50.618;10.642;2022-10-16T02:10:39;96450.75;;;18.67;29.38
64064;BME280;50314;50.618;10.642;2022-10-16T02:13:16;96457.63;;;18.61;29.55
64064;BME280;50314;50.618;10.642;2022-10-16T02:15:42;96451.09;;;18.64;29.17
64064;BME280;50314;50.618;10.642;2022-10-16T02:18:08;96463.59;;;18.63;29.10
64064;BME280;50314;50.618;10.642;2022-10-16T02:21:08;96473.28;;;18.56;29.40
64064;BME280;50314;50.618;10.642;2022-10-16T02:23:37;96473.13;;;18.58;29.15
64064;BME280;50314;50.618;10.642;2022-10-16T02:26:08;96458.78;;;18.59;29.38
64064;BME280;50314;50.618;10.642;2022-10-16T02:28:47;96470.63;;;18.56;29.04
64064;BME280;50314;50.618;10.642;2022-10-16T02:31:23;96475.59;;;18.59;29.05
64064;BME280;50314;50.618;10.642;2022-10-16T02:33:52;96479.94;;;18.60;29.06
64064;BME280;50314;50.618;10.642;2022-10-16T02:36:20;96471.94;;;18.60;29.14
64064;BME280;50314;50.618;10.642;2022-10-16T02:38:46;96456.13;;;18.59;28.95
64064;BME280;50314;50.618;10.642;2022-10-16T02:41:12;96469.44;;;18.59;28.99
64064;BME280;50314;50.618;10.642;2022-10-16T02:43:38;96468.63;;;18.58;29.22
64064;BME280;50314;50.618;10.642;2022-10-16T02:46:03;96475.94;;;18.56;29.13
64064;BME280;50314;50.618;10.642;2022-10-16T02:48:29;96462.63;;;18.56;29.06
64064;BME280;50314;50.618;10.642;2022-10-16T02:50:54;96449.13;;;18.58;29.34
64064;BME280;50314;50.618;10.642;2022-10-16T02:53:19;96455.28;;;18.58;28.92
64064;BME280;50314;50.618;10.642;2022-10-16T02:55:45;96444.78;;;18.57;29.07
64064;BME280;50314;50.618;10.642;2022-10-16T02:58:10;96458.94;;;18.57;29.33
64064;BME280;50314;50.618;10.642;2022-10-16T03:00:36;96464.28;;;18.57;29.06
64064;BME280;50314;50.618;10.642;2022-10-16T03:03:01;96471.44;;;18.57;29.03
64064;BME280;50314;50.618;10.642;2022-10-16T03:05:27;96480.28;;;18.57;28.94
64064;BME280;50314;50.618;10.642;2022-10-16T03:07:52;96481.28;;;18.56;29.00
64064;BME280;50314;50.618;10.642;2022-10-16T03:10:18;96481.28;;;18.56;28.99
64064;BME280;50314;50.618;10.642;2022-10-16T03:12:43;96480.44;;;18.55;29.26
64064;BME280;50314;50.618;10.642;2022-10-16T03:15:09;96478.78;;;18.54;29.20
64064;BME280;50314;50.618;10.642;2022-10-16T03:17:34;96477.78;;;18.55;29.16
64064;BME280;50314;50.618;10.642;2022-10-16T03:20:00;96480.63;;;18.54;29.04
64064;BME280;50314;50.618;10.642;2022-10-16T03:22:25;96468.28;;;18.53;29.20
64064;BME280;50314;50.618;10.642;2022-10-16T03:24:51;96469.97;;;18.54;29.09
64064;BME280;50314;50.618;10.642;2022-10-16T03:27:16;96482.44;;;18.53;29.35
64064;BME280;50314;50.618;10.642;2022-10-16T03:29:42;96481.63;;;18.53;29.27
64064;BME280;50314;50.618;10.642;2022-10-16T03:32:07;96476.28;;;18.53;28.86
64064;BME280;50314;50.618;10.642;2022-10-16T03:34:32;96477.09;;;18.53;29.16
64064;BME280;50314;50.618;10.642;2022-10-16T03:36:58;96484.28;;;18.53;29.36
64064;BME280;50314;50.618;10.642;2022-10-16T03:39:23;96484.47;;;18.51;28.89
64064;BME280;50314;50.618;10.642;2022-10-16T03:41:49;96486.94;;;18.53;29.37
64064;BME280;50314;50.618;10.642;2022-10-16T03:44:14;96479.97;;;18.52;29.41
64064;BME280;50314;50.618;10.642;2022-10-16T03:46:40;96486.13;;;18.52;29.00
64064;BME280;50314;50.618;10.642;2022-10-16T03:49:06;96479.97;;;18.52;29.40
64064;BME280;50314;50.618;10.642;2022-10-16T03:51:31;96481.81;;;18.51;29.00
64064;BME280;50314;50.618;10.642;2022-10-16T03:53:57;96477.28;;;18.52;28.90
64064;BME280;50314;50.618;10.642;2022-10-16T03:56:22;96479.97;;;18.52;29.39
64064;BME280;50314;50.618;10.642;2022-10-16T03:58:47;96489.78;;;18.51;29.31
64064;BME280;50314;50.618;10.642;2022-10-16T04:01:13;96489.78;;;18.51;28.96
64064;BME280;50314;50.618;10.642;2022-10-16T04:03:38;96482.78;;;18.50;29.02
64064;BME280;50314;50.618;10.642;2022-10-16T04:06:04;96491.63;;;18.51;28.97
64064;BME280;50314;50.618;10.642;2022-10-16T04:08:29;96495.47;;;18.48;29.18
64064;BME280;50314;50.618;10.642;2022-10-16T04:10:54;96506.78;;;18.50;29.39
64064;BME280;50314;50.618;10.642;2022-10-16T04:13:20;96506.63;;;18.52;28.84
64064;BME280;50314;50.618;10.642;2022-10-16T04:15:45;96502.13;;;18.52;29.28
64064;BME280;50314;50.618;10.642;2022-10-16T04:18:11;96506.63;;;18.52;28.97
64064;BME280;50314;50.618;10.642;2022-10-16T04:20:36;96512.97;;;18.51;29.08
64064;BME280;50314;50.618;10.642;2022-10-16T04:23:02;96512.97;;;18.51;28.93
64064;BME280;50314;50.618;10.642;2022-10-16T04:25:28;96515.63;;;18.51;28.93
64064;BME280;50314;50.618;10.642;2022-10-16T04:27:53;96518.31;;;18.51;28.92
64064;BME280;50314;50.618;10.642;2022-10-16T04:30:20;96518.47;;;18.49;28.94
64064;BME280;50314;50.618;10.642;2022-10-16T04:32:49;96524.94;;;18.47;29.54
64064;BME280;50314;50.618;10.642;2022-10-16T04:35:16;96532.81;;;18.48;29.06
64064;BME280;50314;50.618;10.642;2022-10-16T04:37:42;96524.78;;;18.48;29.38
64064;BME280;50314;50.618;10.642;2022-10-16T04:40:07;96532.94;;;18.47;29.24
64064;BME280;50314;50.618;10.642;2022-10-16T04:42:33;96526.63;;;18.48;29.15
64064;BME280;50314;50.618;10.642;2022-10-16T04:44:58;96528.28;;;18.49;29.39
64064;BME280;50314;50.618;10.642;2022-10-16T04:47:23;96538.13;;;18.48;29.41
64064;BME280;50314;50.618;10.642;2022-10-16T04:49:49;96534.47;;;18.49;29.02
64064;BME280;50314;50.618;10.642;2022-10-16T04:52:14;96540.63;;;18.50;29.37
64064;BME280;50314;50.618;10.642;2022-10-16T04:54:40;96543.28;;;18.50;29.33
64064;BME280;50314;50.618;10.642;2022-10-16T04:57:05;96547.63;;;18.51;29.01
64064;BME280;50314;50.618;10.642;2022-10-16T04:59:31;96553.81;;;18.51;28.94
64064;BME280;50314;50.618;10.642;2022-10-16T05:01:56;96559.28;;;18.50;29.41
64064;BME280;50314;50.618;10.642;2022-10-16T05:04:22;96561.81;;;18.51;29.06
64064;BME280;50314;50.618;10.642;2022-10-16T05:06:48;96564.63;;;18.50;29.40
64064;BME280;50314;50.618;10.642;2022-10-16T05:09:13;96552.13;;;18.50;29.36
64064;BME280;50314;50.618;10.642;2022-10-16T05:11:38;96569.81;;;18.51;29.24
64064;BME280;50314;50.618;10.642;2022-10-16T05:14:04;96563.47;;;18.52;29.04
64064;BME280;50314;50.618;10.642;2022-10-16T05:16:29;96567.78;;;18.53;28.99
64064;BME280;50314;50.618;10.642;2022-10-16T05:18:56;96573.13;;;18.53;29.01
64064;BME280;50314;50.618;10.642;2022-10-16T05:21:22;96577.63;;;18.53;29.03
64064;BME280;50314;50.618;10.642;2022-10-16T05:23:47;96573.28;;;18.52;29.37
64064;BME280;50314;50.618;10.642;2022-10-16T05:26:13;96575.97;;;18.52;28.90
64064;BME280;50314;50.618;10.642;2022-10-16T05:28:38;96583.78;;;18.53;29.29
64064;BME280;50314;50.618;10.642;2022-10-16T05:31:07;96581.13;;;18.53;29.22
64064;BME280;50314;50.618;10.642;2022-10-16T05:33:33;96585.81;;;18.51;29.39
64064;BME280;50314;50.618;10.642;2022-10-16T05:36:07;96584.28;;;18.49;29.21
64064;BME280;50314;50.618;10.642;2022-10-16T05:38:34;96579.47;;;18.52;29.25
64064;BME280;50314;50.618;10.642;2022-10-16T05:40:59;96576.66;;;18.54;29.27
64064;BME280;50314;50.618;10.642;2022-10-16T05:43:27;96580.13;;;18.54;29.03
64064;BME280;50314;50.618;10.642;2022-10-16T05:46:05;96584.78;;;18.52;29.14
64064;BME280;50314;50.618;10.642;2022-10-16T05:48:31;96594.44;;;18.53;29.19
64064;BME280;50314;50.618;10.642;2022-10-16T05:51:03;96592.97;;;18.51;29.54
64064;BME280;50314;50.618;10.642;2022-10-16T05:53:30;96601.63;;;18.53;29.38
64064;BME280;50314;50.618;10.642;2022-10-16T05:55:56;96605.13;;;18.45;29.38
64064;BME280;50314;50.618;10.642;2022-10-16T05:58:22;96614.13;;;18.52;29.18
64064;BME280;50314;50.618;10.642;2022-10-16T06:00:59;96601.94;;;18.50;29.64
64064;BME280;50314;50.618;10.642;2022-10-16T06:03:25;96605.97;;;18.54;28.96
64064;BME280;50314;50.618;10.642;2022-10-16T06:05:51;96600.47;;;18.55;29.03
64064;BME280;50314;50.618;10.642;2022-10-16T06:08:18;96600.47;;;18.55;28.99
64064;BME280;50314;50.618;10.642;2022-10-16T06:10:45;96597.63;;;18.57;29.33
64064;BME280;50314;50.618;10.642;2022-10-16T06:13:11;96601.97;;;18.58;29.44
64064;BME280;50314;50.618;10.642;2022-10-16T06:15:40;96599.13;;;18.60;28.96
64064;BME280;50314;50.618;10.642;2022-10-16T06:18:07;96599.13;;;18.60;29.25
64064;BME280;50314;50.618;10.642;2022-10-16T06:20:33;96603.44;;;18.61;28.89
64064;BME280;50314;50.618;10.642;2022-10-16T06:22:59;96604.31;;;18.61;29.12
64064;BME280;50314;50.618;10.642;2022-10-16T06:25:24;96611.13;;;18.64;29.32
64064;BME280;50314;50.618;10.642;2022-10-16T06:27:49;96611.97;;;18.64;29.47
64064;BME280;50314;50.618;10.642;2022-10-16T06:30:15;96610.28;;;18.63;29.26
64064;BME280;50314;50.618;10.642;2022-10-16T06:32:40;96617.31;;;18.64;29.20
64064;BME280;50314;50.618;10.642;2022-10-16T06:35:06;96616.47;;;18.64;29.35
64064;BME280;50314;50.618;10.642;2022-10-16T06:37:31;96615.81;;;18.62;29.45
64064;BME280;50314;50.618;10.642;2022-10-16T06:39:57;96617.31;;;18.64;29.14
64064;BME280;50314;50.618;10.642;2022-10-16T06:42:22;96618.97;;;18.65;29.28
64064;BME280;50314;50.618;10.642;2022-10-16T06:44:47;96623.47;;;18.65;29.07
64064;BME280;50314;50.618;10.642;2022-10-16T06:47:13;96631.31;;;18.66;29.07
64064;BME280;50314;50.618;10.642;2022-10-16T06:49:38;96632.13;;;18.67;29.44
64064;BME280;50314;50.618;10.642;2022-10-16T06:52:03;96636.63;;;18.66;29.00
64064;BME280;50314;50.618;10.642;2022-10-16T06:54:30;96636.63;;;18.66;29.00
64064;BME280;50314;50.618;10.642;2022-10-16T06:56:55;96640.13;;;18.67;29.08
64064;BME280;50314;50.618;10.642;2022-10-16T06:59:21;96648.97;;;18.67;29.09
64064;BME280;50314;50.618;10.642;2022-10-16T07:01:47;96644.50;;;18.68;29.17
64064;BME280;50314;50.618;10.642;2022-10-16T07:04:12;96656.97;;;18.67;29.08
64064;BME280;50314;50.618;10.642;2022-10-16T07:06:38;96664.97;;;18.67;29.29
64064;BME280;50314;50.618;10.642;2022-10-16T07:09:06;96660.50;;;18.68;29.39
64064;BME280;50314;50.618;10.642;2022-10-16T07:11:32;96672.97;;;18.67;29.08
64064;BME280;50314;50.618;10.642;2022-10-16T07:13:58;96667.63;;;18.67;29.13
64064;BME280;50314;50.618;10.642;2022-10-16T07:16:26;96661.31;;;18.68;29.46
64064;BME280;50314;50.618;10.642;2022-10-16T07:18:54;96659.63;;;18.67;29.45
64064;BME280;50314;50.618;10.642;2022-10-16T07:21:26;96667.50;;;18.69;29.33
64064;BME280;50314;50.618;10.642;2022-10-16T07:23:53;96669.97;;;18.70;29.17
64064;BME280;50314;50.618;10.642;2022-10-16T07:26:19;96671.66;;;18.71;29.17
64064;BME280;50314;50.618;10.642;2022-10-16T07:28:45;96672.50;;;18.72;29.54
64064;BME280;50314;50.618;10.642;2022-10-16T07:31:12;96674.16;;;18.73;29.66
64064;BME280;50314;50.618;10.642;2022-10-16T07:33:39;96674.00;;;18.74;29.73
64064;BME280;50314;50.618;10.642;2022-10-16T07:36:05;96670.34;;;18.75;29.68
64064;BME280;50314;50.618;10.642;2022-10-16T07:38:31;96675.66;;;18.75;29.77
64064;BME280;50314;50.618;10.642;2022-10-16T07:41:01;96679.88;;;18.78;29.66
64064;BME280;50314;50.618;10.642;2022-10-16T07:43:27;96682.53;;;18.78;29.85
64064;BME280;50314;50.618;10.642;2022-10-16T07:45:53;96681.53;;;18.79;30.30
64064;BME280;50314;50.618;10.642;2022-10-16T07:48:20;96693.03;;;18.80;29.94
64064;BME280;50314;50.618;10.642;2022-10-16T07:50:46;96697.38;;;18.81;30.38
64064;BME280;50314;50.618;10.642;2022-10-16T07:53:12;96696.38;;;18.82;30.27
64064;BME280;50314;50.618;10.642;2022-10-16T07:55:38;96705.38;;;18.81;30.23
64064;BME280;50314;50.618;10.642;2022-10-16T07:58:04;96702.69;;;18.81;30.19
64064;BME280;50314;50.618;10.642;2022-10-16T08:00:29;96707.06;;;18.82;30.36
64064;BME280;50314;50.618;10.642;2022-10-16T08:02:56;96708.91;;;18.81;30.48
64064;BME280;50314;50.618;10.642;2022-10-16T08:05:25;96706.88;;;18.83;30.50
64064;BME280;50314;50.618;10.642;2022-10-16T08:07:50;96705.03;;;18.84;30.51
64064;BME280;50314;50.618;10.642;2022-10-16T08:10:18;96716.41;;;18.86;30.16
64064;BME280;50314;50.618;10.642;2022-10-16T08:12:43;96723.41;;;18.87;30.39
64064;BME280;50314;50.618;10.642;2022-10-16T08:15:09;96724.22;;;18.87;30.30
64064;BME280;50314;50.618;10.642;2022-10-16T08:17:35;96727.56;;;18.89;30.51
64064;BME280;50314;50.618;10.642;2022-10-16T08:20:00;96729.09;;;18.92;30.06
64064;BME280;50314;50.618;10.642;2022-10-16T08:22:27;96731.56;;;18.93;30.29
64064;BME280;50314;50.618;10.642;2022-10-16T08:24:52;96735.06;;;18.94;30.01
64064;BME280;50314;50.618;10.642;2022-10-16T08:27:17;96735.56;;;18.97;30.12
64064;BME280;50314;50.618;10.642;2022-10-16T08:29:43;96735.25;;;19.00;30.64
64064;BME280;50314;50.618;10.642;2022-10-16T08:32:08;96743.09;;;19.02;30.59
64064;BME280;50314;50.618;10.642;2022-10-16T08:34:34;96734.09;;;19.03;31.02
64064;BME280;50314;50.618;10.642;2022-10-16T08:36:59;96742.09;;;19.03;31.56
64064;BME280;50314;50.618;10.642;2022-10-16T08:39:24;96749.09;;;19.04;31.30
64064;BME280;50314;50.618;10.642;2022-10-16T08:50:26;96764.44;;;19.10;31.40
64064;BME280;50314;50.618;10.642;2022-10-16T08:52:53;96770.47;;;19.12;31.49
64064;BME280;50314;50.618;10.642;2022-10-16T08:55:43;96766.47;;;19.08;32.51
64064;BME280;50314;50.618;10.642;2022-10-16T08:58:21;96766.78;;;19.13;32.21
64064;BME280;50314;50.618;10.642;2022-10-16T09:00:54;96770.97;;;19.16;32.04
64064;BME280;50314;50.618;10.642;2022-10-16T09:06:12;96770.13;;;19.23;31.83
64064;BME280;50314;50.618;10.642;2022-10-16T09:16:46;96784.16;;;19.34;32.43
64064;BME280;50314;50.618;10.642;2022-10-16T09:19:22;96782.81;;;19.38;32.65
64064;BME280;50314;50.618;10.642;2022-10-16T09:21:49;96790.53;;;19.41;32.26
64064;BME280;50314;50.618;10.642;2022-10-16T09:24:25;96790.81;;;19.38;32.54
64064;BME280;50314;50.618;10.642;2022-10-16T09:26:51;96795.88;;;19.41;32.06
64064;BME280;50314;50.618;10.642;2022-10-16T09:29:20;96792.22;;;19.42;32.26
64064;BME280;50314;50.618;10.642;2022-10-16T09:31:46;96790.19;;;19.44;32.19
64064;BME280;50314;50.618;10.642;2022-10-16T09:34:30;96797.56;;;19.42;32.71
64064;BME280;50314;50.618;10.642;2022-10-16T09:36:58;96788.22;;;19.46;32.59
64064;BME280;50314;50.618;10.642;2022-10-16T09:39:25;96790.38;;;19.51;32.05
64064;BME280;50314;50.618;10.642;2022-10-16T09:41:50;96790.03;;;19.54;31.75
64064;BME280;50314;50.618;10.642;2022-10-16T09:46:48;96790.19;;;19.60;31.23
64064;BME280;50314;50.618;10.642;2022-10-16T09:49:25;96792.19;;;19.58;31.63
64064;BME280;50314;50.618;10.642;2022-10-16T09:52:02;96801.22;;;19.65;31.24
64064;BME280;50314;50.618;10.642;2022-10-16T09:54:28;96807.56;;;19.64;31.39
64064;BME280;50314;50.618;10.642;2022-10-16T09:57:04;96807.22;;;19.59;31.01
64064;BME280;50314;50.618;10.642;2022-10-16T09:59:34;96809.38;;;19.64;31.15
64064;BME280;50314;50.618;10.642;2022-10-16T10:02:04;96816.72;;;19.62;31.23
64064;BME280;50314;50.618;10.642;2022-10-16T10:04:50;96823.09;;;19.61;30.77
64064;BME280;50314;50.618;10.642;2022-10-16T10:07:24;96818.75;;;19.60;30.91
64064;BME280;50314;50.618;10.642;2022-10-16T10:09:50;96818.25;;;19.64;31.09
64064;BME280;50314;50.618;10.642;2022-10-16T10:12:27;96820.41;;;19.61;31.12
64064;BME280;50314;50.618;10.642;2022-10-16T10:14:58;96829.41;;;19.68;31.15
64064;BME280;50314;50.618;10.642;2022-10-16T10:17:28;96826.59;;;19.69;30.51
64064;BME280;50314;50.618;10.642;2022-10-16T10:19:55;96830.09;;;19.70;30.71
64064;BME280;50314;50.618;10.642;2022-10-16T10:33:28;96830.94;;;19.62;30.83
64064;BME280;50314;50.618;10.642;2022-10-16T10:36:09;96844.63;;;19.67;30.21
64064;BME280;50314;50.618;10.642;2022-10-16T10:41:22;96849.13;;;19.67;30.67
64064;BME280;50314;50.618;10.642;2022-10-16T10:46:55;96852.31;;;19.62;30.73
64064;BME280;50314;50.618;10.642;2022-10-16T10:49:47;96845.47;;;19.60;30.36
64064;BME280;50314;50.618;10.642;2022-10-16T10:52:53;96849.66;;;19.62;30.40
64064;BME280;50314;50.618;10.642;2022-10-16T10:55:31;96842.13;;;19.66;30.26
64064;BME280;50314;50.618;10.642;2022-10-16T11:06:11;96854.97;;;19.70;30.48
64064;BME280;50314;50.618;10.642;2022-10-16T11:08:48;96861.00;;;19.73;30.42
64064;BME280;50314;50.618;10.642;2022-10-16T11:11:22;96857.31;;;19.74;30.47
64064;BME280;50314;50.618;10.642;2022-10-16T11:14:03;96856.63;;;19.71;30.55
64064;BME280;50314;50.618;10.642;2022-10-16T11:19:54;96853.63;;;19.75;30.14
64064;BME280;50314;50.618;10.642;2022-10-16T11:22:30;96858.31;;;19.81;30.19
64064;BME280;50314;50.618;10.642;2022-10-16T11:25:14;96857.78;;;19.85;30.26
64064;BME280;50314;50.618;10.642;2022-10-16T11:28:11;96857.97;;;19.92;30.45
64064;BME280;50314;50.618;10.642;2022-10-16T11:30:59;96852.78;;;19.99;30.23
64064;BME280;50314;50.618;10.642;2022-10-16T11:33:39;96858.31;;;20.05;30.05
64064;BME280;50314;50.618;10.642;2022-10-16T11:38:38;96854.81;;;20.13;29.76
64064;BME280;50314;50.618;10.642;2022-10-16T11:41:43;96857.97;;;20.08;29.58
64064;BME280;50314;50.618;10.642;2022-10-16T11:44:42;96856.13;;;20.09;30.04
64064;BME280;50314;50.618;10.642;2022-10-16T11:47:34;96860.16;;;20.13;29.74
64064;BME280;50314;50.618;10.642;2022-10-16T11:50:22;96852.47;;;20.10;30.29
64064;BME280;50314;50.618;10.642;2022-10-16T11:55:53;96858.13;;;20.15;29.95
64064;BME280;50314;50.618;10.642;2022-10-16T11:58:32;96857.63;;;20.11;29.83
64064;BME280;50314;50.618;10.642;2022-10-16T12:01:17;96865.31;;;20.14;29.90
64064;BME280;50314;50.618;10.642;2022-10-16T12:06:56;96864.31;;;20.24;29.68
64064;BME280;50314;50.618;10.642;2022-10-16T12:09:26;96872.63;;;20.37;29.70
64064;BME280;50314;50.618;10.642;2022-10-16T12:11:53;96870.59;;;20.47;29.44
64064;BME280;50314;50.618;10.642;2022-10-16T12:14:39;96867.75;;;20.49;29.33
64064;BME280;50314;50.618;10.642;2022-10-16T12:19:57;96864.38;;;20.55;29.34
64064;BME280;50314;50.618;10.642;2022-10-16T12:22:23;96862.84;;;20.69;29.30
64064;BME280;50314;50.618;10.642;2022-10-16T12:24:51;96852.63;;;20.80;29.23
64064;BME280;50314;50.618;10.642;2022-10-16T12:27:30;96854.75;;;20.85;29.04
64064;BME280;50314;50.618;10.642;2022-10-16T12:30:01;96849.69;;;20.98;29.02
64064;BME280;50314;50.618;10.642;2022-10-16T12:32:35;96851.94;;;21.09;28.99
64064;BME280;50314;50.618;10.642;2022-10-16T12:35:03;96852.91;;;21.17;29.00
64064;BME280;50314;50.618;10.642;2022-10-16T12:37:35;96848.38;;;21.25;29.02
64064;BME280;50314;50.618;10.642;2022-10-16T12:40:32;96840.47;;;21.32;28.86
64064;BME280;50314;50.618;10.642;2022-10-16T12:42:58;96853.06;;;21.46;28.63
64064;BME280;50314;50.618;10.642;2022-10-16T12:45:26;96846.66;;;21.55;28.61
64064;BME280;50314;50.618;10.642;2022-10-16T12:47:54;96851.31;;;21.62;28.72
64064;BME280;50314;50.618;10.642;2022-10-16T12:50:31;96856.78;;;21.68;28.66
64064;BME280;50314;50.618;10.642;2022-10-16T12:52:58;96860.75;;;21.72;28.68
64064;BME280;50314;50.618;10.642;2022-10-16T12:55:24;96857.88;;;21.74;28.47
64064;BME280;50314;50.618;10.642;2022-10-16T13:00:44;96862.75;;;21.78;28.38
64064;BME280;50314;50.618;10.642;2022-10-16T13:03:43;96854.50;;;21.80;28.58
64064;BME280;50314;50.618;10.642;2022-10-16T13:14:01;96861.28;;;21.91;28.03
64064;BME280;50314;50.618;10.642;2022-10-16T13:16:50;96869.88;;;21.86;28.44
64064;BME280;50314;50.618;10.642;2022-10-16T13:19:30;96869.16;;;21.92;28.02
64064;BME280;50314;50.618;10.642;2022-10-16T13:27:48;96897.16;;;21.90;27.95
64064;BME280;50314;50.618;10.642;2022-10-16T13:30:18;96894.97;;;21.93;28.04
64064;BME280;50314;50.618;10.642;2022-10-16T13:32:49;96896.81;;;21.93;28.05
64064;BME280;50314;50.618;10.642;2022-10-16T13:35:24;96889.31;;;21.88;28.26
64064;BME280;50314;50.618;10.642;2022-10-16T13:37:50;96898.00;;;21.90;28.29
64064;BME280;50314;50.618;10.642;2022-10-16T13:40:21;96894.19;;;21.85;28.13
64064;BME280;50314;50.618;10.642;2022-10-16T13:42:47;96893.34;;;21.84;28.06
64064;BME280;50314;50.618;10.642;2022-10-16T13:45:24;96900.28;;;21.78;28.51
64064;BME280;50314;50.618;10.642;2022-10-16T13:48:08;96895.09;;;21.77;28.45
64064;BME280;50314;50.618;10.642;2022-10-16T13:50:35;96894.72;;;21.80;28.13
64064;BME280;50314;50.618;10.642;2022-10-16T13:53:05;96892.41;;;21.77;28.34
64064;BME280;50314;50.618;10.642;2022-10-16T13:55:30;96896.94;;;21.76;28.24
64064;BME280;50314;50.618;10.642;2022-10-16T13:58:08;96891.06;;;21.73;28.27
64064;BME280;50314;50.618;10.642;2022-10-16T14:00:34;96885.38;;;21.76;28.22
64064;BME280;50314;50.618;10.642;2022-10-16T14:03:05;96891.06;;;21.73;28.34
64064;BME280;50314;50.618;10.642;2022-10-16T14:05:32;96903.44;;;21.74;28.15
64064;BME280;50314;50.618;10.642;2022-10-16T14:07:59;96901.78;;;21.73;28.53
64064;BME280;50314;50.618;10.642;2022-10-16T14:10:30;96902.97;;;21.70;28.49
64064;BME280;50314;50.618;10.642;2022-10-16T14:13:02;96909.16;;;21.71;28.49
64064;BME280;50314;50.618;10.642;2022-10-16T14:15:33;96919.72;;;21.72;28.68
64064;BME280;50314;50.618;10.642;2022-10-16T14:17:59;96917.22;;;21.71;28.09
64064;BME280;50314;50.618;10.642;2022-10-16T14:20:28;96922.56;;;21.71;28.34
64064;BME280;50314;50.618;10.642;2022-10-16T14:23:04;96918.59;;;21.67;28.22
64064;BME280;50314;50.618;10.642;2022-10-16T14:25:43;96927.44;;;21.67;28.47
64064;BME280;50314;50.618;10.642;2022-10-16T14:30:35;96934.38;;;21.62;28.42